»·PEaware :: N49LP KMRY-KWVI

N49LP :: KMRY-KWVI

FLIGHT INFORMATION

Flight Status: Arrived
Operator: Privately registered:
United States
More flights under this callsign
Pilot: Les P. (123)
Aircraft: BEECH AIRCRAFT BONANZA
(BE35)
More flights by this aircraft type
Origin: KMRY Monterey Peninsula
United States
Destination: KWVI Watsonville Mun
United States
More flights between these airports :: More routes between these airports
Route: +SNS
File this flight plan on PilotEdge
Remarks:
Altitude:
(Current/Filed)
4,000ft
Speed:
(Current/Filed)
164kts
Departed: 01-Jan-20 03:06 PM
Arrived: 01-Jan-20 03:19 PM
Distance/Time
Traveled:
21nm/0:12
Distance/Time
To Go:
Arrived

Flight Plot

Page will automatically refresh every two minutes.

Flight plan parsing failed; only flown route is shown


Map Options




Map Legend


Flown Route
Filed Route
Departure Airport
Arrival Airport
Navaid (VOR, NDB)
Fix

Horizontal Profiles

Position Reports

Time Latitude Longitude Heading Altitude Ground
Speed
01-Jan-20 14:25 36.588835 -121.853877 245 208ft 0kts
01-Jan-20 14:26 36.588835 -121.853877 245 208ft 0kts
01-Jan-20 14:27 36.588835 -121.853877 245 208ft 0kts
01-Jan-20 14:28 36.588835 -121.853877 245 208ft 0kts
01-Jan-20 14:29 36.588835 -121.853877 245 208ft 0kts
01-Jan-20 14:30 36.588835 -121.853877 245 208ft 0kts
01-Jan-20 14:31 36.588835 -121.853877 245 208ft 0kts
01-Jan-20 14:32 36.588835 -121.853877 245 208ft 0kts
01-Jan-20 14:33 36.588835 -121.853877 245 208ft 0kts
01-Jan-20 14:34 36.588835 -121.853877 245 208ft 0kts
01-Jan-20 14:35 36.588835 -121.853877 245 208ft 0kts
01-Jan-20 14:36 36.588835 -121.853877 245 208ft 0kts
01-Jan-20 14:37 36.588835 -121.853877 245 208ft 0kts
01-Jan-20 14:38 36.588835 -121.853877 245 208ft 0kts
01-Jan-20 14:39 36.588835 -121.853877 245 208ft 0kts
01-Jan-20 14:40 36.588833 -121.853881 245 208ft 0kts
01-Jan-20 14:41 36.588832 -121.853884 245 208ft 0kts
01-Jan-20 14:42 36.588830 -121.853888 245 208ft 0kts
01-Jan-20 14:43 36.588829 -121.853891 245 208ft 0kts
01-Jan-20 14:44 36.588828 -121.853895 245 208ft 0kts
01-Jan-20 14:45 36.588827 -121.853898 245 208ft 0kts
01-Jan-20 14:46 36.588825 -121.853902 245 208ft 0kts
01-Jan-20 14:47 36.588824 -121.853905 245 208ft 0kts
01-Jan-20 14:48 36.588823 -121.853909 245 208ft 0kts
01-Jan-20 14:49 36.588821 -121.853912 245 208ft 0kts
01-Jan-20 14:50 36.588820 -121.853916 245 208ft 0kts
01-Jan-20 14:51 36.588819 -121.853919 245 208ft 0kts
01-Jan-20 14:52 36.588817 -121.853923 245 208ft 0kts
01-Jan-20 14:53 36.588816 -121.853926 245 208ft 0kts
01-Jan-20 14:54 36.588815 -121.853930 245 208ft 0kts
01-Jan-20 14:55 36.589086 -121.853883 62 208ft 2kts
01-Jan-20 14:56 36.587744 -121.849033 113 208ft 19kts
01-Jan-20 14:57 36.585483 -121.842722 112 208ft 20kts
01-Jan-20 14:58 36.583008 -121.836609 130 208ft 15kts
01-Jan-20 14:59 36.582738 -121.835819 71 208ft 0kts
01-Jan-20 15:00 36.582739 -121.835816 71 208ft 0kts
01-Jan-20 15:01 36.582740 -121.835813 71 208ft 0kts
01-Jan-20 15:02 36.582741 -121.835807 71 208ft 0kts
01-Jan-20 15:03 36.582777 -121.835678 70 208ft 8kts
01-Jan-20 15:04 36.583552 -121.834226 290 208ft 16kts
01-Jan-20 15:05 36.592371 -121.861002 287 1090ft 103kts
01-Jan-20 15:06 36.613830 -121.878999 336 2456ft 90kts
01-Jan-20 15:07 36.638168 -121.893461 336 2985ft 117kts
01-Jan-20 15:08 36.670460 -121.912446 336 2988ft 133kts
01-Jan-20 15:09 36.704780 -121.924703 352 2991ft 129kts
01-Jan-20 15:10 36.740376 -121.928392 353 2984ft 128kts
01-Jan-20 15:11 36.775624 -121.914059 23 2661ft 144kts
01-Jan-20 15:12 36.808321 -121.889833 27 2196ft 120kts
01-Jan-20 15:13 36.834059 -121.869517 26 2168ft 103kts
01-Jan-20 15:14 36.859602 -121.847784 25 1823ft 110kts
01-Jan-20 15:15 36.886899 -121.831341 32 1150ft 103kts
01-Jan-20 15:16 36.909021 -121.811748 34 720ft 95kts
01-Jan-20 15:17 36.929861 -121.795182 33 192ft 78kts
01-Jan-20 15:18 36.938968 -121.787391 153 148ft 7kts
01-Jan-20 15:19 36.938261 -121.787362 216 148ft 0kts
01-Jan-20 15:20 36.936665 -121.787948 88 148ft 3kts
01-Jan-20 15:21 36.936645 -121.787819 100 148ft 0kts
01-Jan-20 15:22 36.936645 -121.787818 100 148ft 0kts
01-Jan-20 15:23 36.936645 -121.787818 100 148ft 0kts

Navigation Log

Ident Type
Flight plan parsing failed, navigation log unavailable